»·PEaware :: UAL576 KPSP-KLAS

UAL576 :: KPSP-KLAS

FLIGHT INFORMATION

Flight Status: Arrived
Operator:
United Airlines
More flights by this operator :: More flights under this callsign
Pilot: Anonymous 8274 (8274)
Aircraft: BOEING 737-200
(B732)
More flights by this aircraft type
Origin: KPSP Palm Springs Intl
United States
Destination: KLAS McCarran Intl
United States
More flights between these airports :: More routes between these airports
Route: +CATH1 PSP V370 TNP CLARR3
File this flight plan on PilotEdge
Remarks:
Altitude:
(Current/Filed)
25,000ft
Speed:
(Current/Filed)
460kts
Departed: 09-Jan-18 06:08 PM
Arrived: 09-Jan-18 07:08 PM
Distance/Time
Traveled:
150nm/1:00
Distance/Time
To Go:
Arrived

Flight Plot

Page will automatically refresh every two minutes.

Flight plan parsing failed; only flown route is shown


Map Options




Map Legend


Flown Route
Filed Route
Departure Airport
Arrival Airport
Navaid (VOR, NDB)
Fix

Horizontal Profiles

Position Reports

Time Latitude Longitude Heading Altitude Ground
Speed
09-Jan-18 17:22 33.823704 -116.506198 225 486ft 0kts
09-Jan-18 17:23 33.823704 -116.506198 225 486ft 0kts
09-Jan-18 17:24 33.823704 -116.506198 225 486ft 0kts
09-Jan-18 17:25 33.823704 -116.506198 225 486ft 0kts
09-Jan-18 17:26 33.823704 -116.506198 225 486ft 0kts
09-Jan-18 17:27 33.823704 -116.506198 225 486ft 0kts
09-Jan-18 17:28 33.823704 -116.506198 225 486ft 0kts
09-Jan-18 17:29 33.823704 -116.506198 225 486ft 0kts
09-Jan-18 17:30 33.823704 -116.506198 225 486ft 0kts
09-Jan-18 17:31 33.823704 -116.506198 225 486ft 0kts
09-Jan-18 17:32 33.823704 -116.506198 225 486ft 0kts
09-Jan-18 17:33 33.823704 -116.506198 225 486ft 0kts
09-Jan-18 17:34 33.823704 -116.506198 225 486ft 0kts
09-Jan-18 17:35 33.823704 -116.506198 225 486ft 0kts
09-Jan-18 17:36 33.823704 -116.506198 225 486ft 0kts
09-Jan-18 17:37 33.823704 -116.506198 225 486ft 0kts
09-Jan-18 17:38 33.823704 -116.506198 225 486ft 0kts
09-Jan-18 17:39 33.823704 -116.506198 225 486ft 0kts
09-Jan-18 17:40 33.823704 -116.506198 225 486ft 0kts
09-Jan-18 17:41 33.823704 -116.506198 225 486ft 0kts
09-Jan-18 17:42 33.823704 -116.506198 225 486ft 0kts
09-Jan-18 17:43 33.823704 -116.506198 225 486ft 0kts
09-Jan-18 17:44 33.823704 -116.506198 225 486ft 0kts
09-Jan-18 17:45 33.823704 -116.506198 225 486ft 0kts
09-Jan-18 17:46 33.823704 -116.506198 225 486ft 0kts
09-Jan-18 17:47 33.823704 -116.506198 225 486ft 0kts
09-Jan-18 17:48 33.823704 -116.506198 225 486ft 0kts
09-Jan-18 17:49 33.823704 -116.506198 225 486ft 0kts
09-Jan-18 17:50 33.823704 -116.506198 225 486ft 0kts
09-Jan-18 17:51 33.823704 -116.506198 225 486ft 0kts
09-Jan-18 17:52 33.823704 -116.506198 225 486ft 0kts
09-Jan-18 17:53 33.823704 -116.506198 225 486ft 0kts
09-Jan-18 17:54 33.823704 -116.506198 225 486ft 0kts
09-Jan-18 17:55 33.823704 -116.506198 225 486ft 0kts
09-Jan-18 17:56 33.823704 -116.506198 225 486ft 0kts
09-Jan-18 17:57 33.823792 -116.506087 225 486ft 2kts
09-Jan-18 17:58 33.824245 -116.505790 165 486ft 2kts
09-Jan-18 17:59 33.824454 -116.505965 128 486ft 0kts
09-Jan-18 18:00 33.824454 -116.505965 128 486ft 0kts
09-Jan-18 18:01 33.824454 -116.505965 128 486ft 0kts
09-Jan-18 18:02 33.824454 -116.505965 128 486ft 0kts
09-Jan-18 18:03 33.824454 -116.505965 128 486ft 0kts
09-Jan-18 18:04 33.824454 -116.505965 128 486ft 0kts
09-Jan-18 18:05 33.824454 -116.505965 128 486ft 0kts
09-Jan-18 18:06 33.824454 -116.505965 128 486ft 0kts
09-Jan-18 18:07 33.823611 -116.505185 142 485ft 5kts
09-Jan-18 18:08 33.822403 -116.503213 142 486ft 13kts
09-Jan-18 18:09 33.819444 -116.500591 143 486ft 17kts
09-Jan-18 18:10 33.818514 -116.499065 88 486ft 0kts
09-Jan-18 18:11 33.818514 -116.499065 88 486ft 0kts
09-Jan-18 18:12 33.818546 -116.498635 77 486ft 8kts
09-Jan-18 18:13 33.819162 -116.498301 322 486ft 0kts
09-Jan-18 18:14 33.837138 -116.514397 323 856ft 150kts
09-Jan-18 18:15 33.872440 -116.549515 321 2462ft 194kts
09-Jan-18 18:16 33.924208 -116.588115 3 4849ft 245kts
09-Jan-18 18:17 33.954736 -116.519874 113 7353ft 294kts
09-Jan-18 18:18 33.895283 -116.452978 146 9994ft 306kts
09-Jan-18 18:19 33.840959 -116.379916 109 12532ft 327kts
09-Jan-18 18:20 33.807814 -116.278028 122 12979ft 331kts
09-Jan-18 18:21 33.743866 -116.225054 202 12988ft 274kts
09-Jan-18 18:22 33.726287 -116.294095 306 13001ft 270kts
09-Jan-18 18:23 33.792765 -116.352198 319 13008ft 324kts
09-Jan-18 18:24 33.865191 -116.418966 316 14807ft 337kts
09-Jan-18 18:25 33.957815 -116.417779 37 16470ft 392kts
09-Jan-18 18:26 33.988525 -116.296775 93 18034ft 400kts
09-Jan-18 18:27 33.988408 -116.162883 93 19493ft 409kts
09-Jan-18 18:28 34.015769 -116.029600 65 20784ft 424kts
09-Jan-18 18:29 34.067282 -115.900832 65 21963ft 433kts
09-Jan-18 18:30 34.117390 -115.769549 67 23014ft 440kts
09-Jan-18 18:31 34.203760 -115.669049 39 23881ft 447kts
09-Jan-18 18:32 34.296032 -115.568190 40 24723ft 454kts
09-Jan-18 18:33 34.397511 -115.473717 28 24825ft 474kts
09-Jan-18 18:34 34.516071 -115.402370 7 24855ft 481kts
09-Jan-18 18:35 34.647611 -115.370590 6 24834ft 488kts
09-Jan-18 18:36 34.778436 -115.339196 7 24826ft 493kts
09-Jan-18 18:37 34.911066 -115.305359 18 24812ft 500kts
09-Jan-18 18:38 35.034149 -115.228436 27 24830ft 503kts
09-Jan-18 18:39 35.146794 -115.168724 9 24457ft 437kts
09-Jan-18 18:40 35.240904 -115.219269 297 23819ft 353kts
09-Jan-18 18:41 35.291510 -115.318926 296 21585ft 362kts
09-Jan-18 18:42 35.368945 -115.393158 324 19343ft 379kts
09-Jan-18 18:43 35.453929 -115.461989 319 17534ft 364kts
09-Jan-18 18:44 35.529995 -115.537518 316 15742ft 352kts
09-Jan-18 18:45 35.602634 -115.611789 318 14006ft 343kts
09-Jan-18 18:46 35.656310 -115.664019 318 13029ft 326kts
09-Jan-18 18:47 35.733058 -115.655158 48 13068ft 329kts
09-Jan-18 18:48 35.790585 -115.572133 44 13031ft 323kts
09-Jan-18 18:49 35.872180 -115.554213 356 13033ft 314kts
09-Jan-18 18:50 35.952444 -115.557246 356 13019ft 313kts
09-Jan-18 18:51 36.037097 -115.551845 28 13024ft 321kts
09-Jan-18 18:52 36.061452 -115.460842 106 12344ft 303kts
09-Jan-18 18:53 36.040294 -115.363664 110 10983ft 293kts
09-Jan-18 18:54 36.017809 -115.273349 110 9727ft 284kts
09-Jan-18 18:55 35.995341 -115.182939 109 8454ft 274kts
09-Jan-18 18:56 35.995695 -115.092265 85 7210ft 270kts
09-Jan-18 18:57 36.004409 -115.002175 85 5981ft 260kts
09-Jan-18 18:58 36.011676 -114.915304 85 5001ft 242kts
09-Jan-18 18:59 36.049652 -114.869816 340 5032ft 234kts
09-Jan-18 19:00 36.082308 -114.936583 292 5026ft 232kts
09-Jan-18 19:01 36.065622 -114.994514 192 5058ft 205kts
09-Jan-18 19:02 36.003102 -115.010855 167 5007ft 237kts
09-Jan-18 19:03 35.977818 -114.952311 91 4998ft 200kts
09-Jan-18 19:04 35.976755 -114.885513 91 5016ft 197kts
09-Jan-18 19:05 35.975701 -114.815208 91 5015ft 212kts
09-Jan-18 19:06 36.010347 -114.770365 344 5033ft 237kts
09-Jan-18 19:07 36.044652 -114.838925 291 5001ft 236kts
09-Jan-18 19:08 36.066254 -114.906692 291 4982ft 183kts
09-Jan-18 19:09 36.077487 -114.959660 271 4512ft 152kts
09-Jan-18 19:10 36.078165 -115.010367 265 3614ft 144kts
09-Jan-18 19:11 36.076581 -115.059911 270 3193ft 140kts
09-Jan-18 19:12 36.076385 -115.108314 271 2449ft 142kts
09-Jan-18 19:13 36.076347 -115.154904 271 2120ft 131kts
09-Jan-18 19:14 36.078324 -115.171000 24 2120ft 13kts
09-Jan-18 19:15 36.081454 -115.169587 336 2120ft 11kts

Navigation Log

Ident Type
Flight plan parsing failed, navigation log unavailable